createdAt,value
2018-06-09T00:00:30.604Z,22.62
2018-06-09T00:01:30.648Z,22.61
2018-06-09T00:02:31.895Z,22.61
2018-06-09T00:03:30.502Z,22.62
2018-06-09T00:04:30.575Z,22.61
2018-06-09T00:05:30.681Z,22.62
2018-06-09T00:06:30.653Z,22.62
2018-06-09T00:07:31.979Z,22.6
2018-06-09T00:08:30.274Z,22.61
2018-06-09T00:09:30.734Z,22.61
2018-06-09T00:10:31.946Z,22.61
2018-06-09T00:11:30.654Z,22.6
2018-06-09T00:12:31.645Z,22.61
2018-06-09T00:13:30.672Z,22.6
2018-06-09T00:14:30.683Z,22.61
2018-06-09T00:15:30.569Z,22.6
2018-06-09T00:16:30.446Z,22.6
2018-06-09T00:17:30.597Z,22.6
2018-06-09T00:18:30.728Z,22.6
2018-06-09T00:19:30.538Z,22.6
2018-06-09T00:20:30.700Z,22.6
2018-06-09T00:21:30.319Z,22.6
2018-06-09T00:22:31.940Z,22.6
2018-06-09T00:23:30.534Z,22.6
2018-06-09T00:24:30.353Z,22.6
2018-06-09T00:25:31.259Z,22.6
2018-06-09T00:26:30.599Z,22.6
2018-06-09T00:27:30.641Z,22.6
2018-06-09T00:28:30.778Z,22.6
2018-06-09T00:29:30.762Z,22.6
2018-06-09T00:30:30.482Z,22.6
2018-06-09T00:31:30.472Z,22.59
2018-06-09T00:32:30.455Z,22.6
2018-06-09T00:33:30.730Z,22.6
2018-06-09T00:34:30.589Z,22.59
2018-06-09T00:35:30.725Z,22.6
2018-06-09T00:36:30.557Z,22.6
2018-06-09T00:37:30.710Z,22.59
2018-06-09T00:38:30.069Z,22.59
2018-06-09T00:39:29.777Z,22.58
2018-06-09T00:40:30.653Z,22.59
2018-06-09T00:41:29.886Z,22.59
2018-06-09T00:42:29.951Z,22.59
2018-06-09T00:43:30.004Z,22.58
2018-06-09T00:44:29.864Z,22.59
2018-06-09T00:45:30.755Z,22.6
2018-06-09T00:46:30.849Z,22.58
2018-06-09T00:47:29.987Z,22.58
2018-06-09T00:48:29.990Z,22.59
2018-06-09T00:49:31.538Z,22.58
2018-06-09T00:50:30.086Z,22.58
2018-06-09T00:51:30.523Z,22.59
2018-06-09T00:52:29.932Z,22.58
2018-06-09T00:53:29.865Z,22.58
2018-06-09T00:54:29.944Z,22.58
2018-06-09T00:55:29.834Z,22.58
2018-06-09T00:56:29.833Z,22.59
2018-06-09T00:57:29.847Z,22.58
2018-06-09T00:58:29.921Z,22.57
2018-06-09T00:59:30.009Z,22.58
2018-06-09T01:00:29.764Z,22.58
2018-06-09T01:01:29.805Z,22.57
2018-06-09T01:02:30.029Z,22.58
2018-06-09T01:03:29.932Z,22.58
2018-06-09T01:04:30.342Z,22.58
2018-06-09T01:05:29.770Z,22.58
2018-06-09T01:06:29.928Z,22.58
2018-06-09T01:07:29.841Z,22.57
2018-06-09T01:08:29.964Z,22.57
2018-06-09T01:09:30.032Z,22.58
2018-06-09T01:10:29.861Z,22.57
2018-06-09T01:11:46.387Z,22.58
2018-06-09T01:12:29.781Z,22.57
2018-06-09T01:13:29.993Z,22.57
2018-06-09T01:14:29.812Z,22.57
2018-06-09T01:15:30.050Z,22.58
2018-06-09T01:16:29.742Z,22.56
2018-06-09T01:17:29.826Z,22.57
2018-06-09T01:18:30.009Z,22.57
2018-06-09T01:19:29.915Z,22.56
2018-06-09T01:20:29.896Z,22.57
2018-06-09T01:21:30.602Z,22.57
2018-06-09T01:22:29.938Z,22.57
2018-06-09T01:23:29.772Z,22.57
2018-06-09T01:24:29.842Z,22.57
2018-06-09T01:25:29.981Z,22.56
2018-06-09T01:26:30.014Z,22.56
2018-06-09T01:27:29.911Z,22.56
2018-06-09T01:28:39.845Z,22.56
2018-06-09T01:29:29.828Z,22.57
2018-06-09T01:30:30.005Z,22.56
2018-06-09T01:31:29.958Z,22.56
2018-06-09T01:32:30.003Z,22.57
2018-06-09T01:33:29.927Z,22.56
2018-06-09T01:34:29.902Z,22.56
2018-06-09T01:35:29.966Z,22.56
2018-06-09T01:36:29.915Z,22.56
2018-06-09T01:37:29.962Z,22.56
2018-06-09T01:38:30.179Z,22.56
2018-06-09T01:39:29.890Z,22.56
2018-06-09T01:40:29.913Z,22.54
2018-06-09T01:41:29.914Z,22.56
2018-06-09T01:42:29.985Z,22.56
2018-06-09T01:43:30.091Z,22.55
2018-06-09T01:44:32.512Z,22.55
2018-06-09T01:45:29.976Z,22.56
2018-06-09T01:46:29.917Z,22.55
2018-06-09T01:47:29.948Z,22.55
2018-06-09T01:48:29.888Z,22.56
2018-06-09T01:49:29.913Z,22.55
2018-06-09T01:50:30.072Z,22.55
2018-06-09T01:51:29.909Z,22.55
2018-06-09T01:52:29.886Z,22.55
2018-06-09T01:53:30.047Z,22.56
2018-06-09T01:54:29.965Z,22.55
2018-06-09T01:55:29.884Z,22.54
2018-06-09T01:56:29.988Z,22.55
2018-06-09T01:57:30.011Z,22.55
2018-06-09T01:58:29.891Z,22.55
2018-06-09T01:59:32.546Z,22.55
2018-06-09T02:00:30.116Z,22.56
2018-06-09T02:01:29.890Z,22.55
2018-06-09T02:02:29.996Z,22.56
2018-06-09T02:03:30.026Z,22.55
2018-06-09T02:04:30.036Z,22.54
2018-06-09T02:05:32.545Z,22.55
2018-06-09T02:06:30.018Z,22.55
2018-06-09T02:07:30.055Z,22.55
2018-06-09T02:08:30.019Z,22.55
2018-06-09T02:09:30.197Z,22.55
2018-06-09T02:10:29.904Z,22.54
2018-06-09T02:11:29.939Z,22.55
2018-06-09T02:12:32.324Z,22.55
2018-06-09T02:13:30.065Z,22.55
2018-06-09T02:14:30.264Z,22.55
2018-06-09T02:15:29.970Z,22.54
2018-06-09T02:16:29.896Z,22.53
2018-06-09T02:17:29.909Z,22.54
2018-06-09T02:18:29.928Z,22.54
2018-06-09T02:19:30.022Z,22.54
2018-06-09T02:20:30.006Z,22.54
2018-06-09T02:21:30.049Z,22.55
2018-06-09T02:22:29.966Z,22.54
2018-06-09T02:23:30.116Z,22.54
2018-06-09T02:24:32.529Z,22.54
2018-06-09T02:25:29.913Z,22.55
2018-06-09T02:26:29.989Z,22.55
2018-06-09T02:27:30.014Z,22.55
2018-06-09T02:28:29.947Z,22.54
2018-06-09T02:29:29.932Z,22.54
2018-06-09T02:30:30.028Z,22.55
2018-06-09T02:31:30.102Z,22.54
2018-06-09T02:32:32.541Z,22.54
2018-06-09T02:33:30.029Z,22.55
2018-06-09T02:34:30.008Z,22.54
2018-06-09T02:35:29.971Z,22.54
2018-06-09T02:36:29.952Z,22.54
2018-06-09T02:37:30.033Z,22.54
2018-06-09T02:38:29.848Z,22.54
2018-06-09T02:39:30.234Z,22.54
2018-06-09T02:40:30.157Z,22.53
2018-06-09T02:41:30.138Z,22.54
2018-06-09T02:42:29.723Z,22.54
2018-06-09T02:43:30.236Z,22.54
2018-06-09T02:44:30.194Z,22.54
2018-06-09T02:45:30.205Z,22.54
2018-06-09T02:46:29.907Z,22.53
2018-06-09T02:47:29.908Z,22.54
2018-06-09T02:48:30.127Z,22.54
2018-06-09T02:49:30.173Z,22.53
2018-06-09T02:50:29.860Z,22.54
2018-06-09T02:51:30.307Z,22.54
2018-06-09T02:52:30.152Z,22.54
2018-06-09T02:53:29.830Z,22.55
2018-06-09T02:54:30.147Z,22.54
2018-06-09T02:55:30.218Z,22.53
2018-06-09T02:56:30.306Z,22.53
2018-06-09T02:57:30.212Z,22.53
2018-06-09T02:58:30.255Z,22.52
2018-06-09T02:59:30.153Z,22.53
2018-06-09T03:00:30.205Z,22.54
2018-06-09T03:01:30.146Z,22.52
2018-06-09T03:02:30.321Z,22.53
2018-06-09T03:03:29.821Z,22.54
2018-06-09T03:04:30.185Z,22.52
2018-06-09T03:05:29.925Z,22.53
2018-06-09T03:06:29.801Z,22.53
2018-06-09T03:07:29.853Z,22.53
2018-06-09T03:08:30.254Z,22.52
2018-06-09T03:09:30.187Z,22.52
2018-06-09T03:10:30.223Z,22.53
2018-06-09T03:11:29.831Z,22.52
2018-06-09T03:12:29.827Z,22.53
2018-06-09T03:13:29.752Z,22.52
2018-06-09T03:14:29.863Z,22.53
2018-06-09T03:15:30.165Z,22.52
2018-06-09T03:16:29.747Z,22.52
2018-06-09T03:17:29.873Z,22.53
2018-06-09T03:18:32.167Z,22.51
2018-06-09T03:19:30.229Z,22.52
2018-06-09T03:20:29.787Z,22.53
2018-06-09T03:21:29.785Z,22.52
2018-06-09T03:22:29.850Z,22.52
2018-06-09T03:23:30.223Z,22.52
2018-06-09T03:24:29.833Z,22.53
2018-06-09T03:25:30.269Z,22.51
2018-06-09T03:26:30.299Z,22.52
2018-06-09T03:27:29.834Z,22.52
2018-06-09T03:28:32.618Z,22.53
2018-06-09T03:29:29.855Z,22.52
2018-06-09T03:30:29.827Z,22.52
2018-06-09T03:31:32.350Z,22.53
2018-06-09T03:32:30.215Z,22.53
2018-06-09T03:33:29.790Z,22.52
2018-06-09T03:34:30.205Z,22.53
2018-06-09T03:35:29.818Z,22.51
2018-06-09T03:36:30.272Z,22.52
2018-06-09T03:37:30.208Z,22.51
2018-06-09T03:38:30.018Z,22.53
2018-06-09T03:39:29.891Z,22.52
2018-06-09T03:40:29.900Z,22.51
2018-06-09T03:41:30.031Z,22.52
2018-06-09T03:42:29.798Z,22.51
2018-06-09T03:43:29.884Z,22.51
2018-06-09T03:44:29.803Z,22.52
2018-06-09T03:45:29.844Z,22.51
2018-06-09T03:46:29.805Z,22.51
2018-06-09T03:47:29.935Z,22.52
2018-06-09T03:48:29.842Z,22.52
2018-06-09T03:49:29.983Z,22.51
2018-06-09T03:50:29.821Z,22.51
2018-06-09T03:51:30.169Z,22.53
2018-06-09T03:52:29.831Z,22.52
2018-06-09T03:53:29.807Z,22.52
2018-06-09T03:54:29.955Z,22.52
2018-06-09T03:55:29.946Z,22.51
2018-06-09T03:56:29.890Z,22.51
2018-06-09T03:57:30.019Z,22.51
2018-06-09T03:58:29.868Z,22.52
2018-06-09T03:59:29.775Z,22.52
2018-06-09T04:00:29.920Z,22.52
2018-06-09T04:01:29.878Z,22.5
2018-06-09T04:02:29.928Z,22.52
2018-06-09T04:03:29.831Z,22.51
2018-06-09T04:04:29.646Z,22.51
2018-06-09T04:05:29.953Z,22.51
2018-06-09T04:06:29.934Z,22.52
2018-06-09T04:07:29.974Z,22.5
2018-06-09T04:08:30.015Z,22.51
2018-06-09T04:09:29.991Z,22.52
2018-06-09T04:10:29.802Z,22.51
2018-06-09T04:11:30.034Z,22.51
2018-06-09T04:12:29.835Z,22.51
2018-06-09T04:13:29.836Z,22.51
2018-06-09T04:14:29.777Z,22.5
2018-06-09T04:15:29.820Z,22.51
2018-06-09T04:16:29.982Z,22.5
2018-06-09T04:17:29.854Z,22.5
2018-06-09T04:18:29.963Z,22.51
2018-06-09T04:19:29.911Z,22.5
2018-06-09T04:20:29.994Z,22.5
2018-06-09T04:21:29.779Z,22.51
2018-06-09T04:22:29.745Z,22.5
2018-06-09T04:23:29.963Z,22.49
2018-06-09T04:24:29.746Z,22.52
2018-06-09T04:25:29.796Z,22.5
2018-06-09T04:26:29.790Z,22.51
2018-06-09T04:27:29.865Z,22.52
2018-06-09T04:28:29.859Z,22.5
2018-06-09T04:29:29.823Z,22.5
2018-06-09T04:30:29.815Z,22.5
2018-06-09T04:31:29.870Z,22.5
2018-06-09T04:32:29.827Z,22.51
2018-06-09T04:33:29.775Z,22.51
2018-06-09T04:34:29.802Z,22.5
2018-06-09T04:35:29.958Z,22.51
2018-06-09T04:36:29.796Z,22.5
2018-06-09T04:37:29.906Z,22.5
2018-06-09T04:38:31.300Z,22.5
2018-06-09T04:39:29.877Z,22.51
2018-06-09T04:40:29.775Z,22.5
2018-06-09T04:41:29.808Z,22.49
2018-06-09T04:42:30.121Z,22.51
2018-06-09T04:43:29.830Z,22.5
2018-06-09T04:44:29.858Z,22.5
2018-06-09T04:45:29.955Z,22.5
2018-06-09T04:46:30.012Z,22.5
2018-06-09T04:47:29.909Z,22.5
2018-06-09T04:48:29.941Z,22.51
2018-06-09T04:49:29.830Z,22.49
2018-06-09T04:50:29.971Z,22.5
2018-06-09T04:51:29.841Z,22.5
2018-06-09T04:52:29.956Z,22.5
2018-06-09T04:53:29.925Z,22.5
2018-06-09T04:54:29.841Z,22.5
2018-06-09T04:55:46.438Z,22.49
2018-06-09T04:56:29.966Z,22.49
2018-06-09T04:57:29.766Z,22.5
2018-06-09T04:58:29.787Z,22.5
2018-06-09T04:59:29.981Z,22.5
2018-06-09T05:00:29.763Z,22.5
2018-06-09T05:01:29.889Z,22.49
2018-06-09T05:02:29.902Z,22.5
2018-06-09T05:03:29.836Z,22.5
2018-06-09T05:04:29.774Z,22.49
2018-06-09T05:05:29.877Z,22.5
2018-06-09T05:06:29.706Z,22.5
2018-06-09T05:07:29.890Z,22.49
2018-06-09T05:08:29.775Z,22.49
2018-06-09T05:09:29.980Z,22.49
2018-06-09T05:10:29.931Z,22.49
2018-06-09T05:11:29.796Z,22.5
2018-06-09T05:12:39.725Z,22.5
2018-06-09T05:13:29.803Z,22.49
2018-06-09T05:14:29.751Z,22.49
2018-06-09T05:15:29.842Z,22.5
2018-06-09T05:16:29.855Z,22.49
2018-06-09T05:17:29.748Z,22.49
2018-06-09T05:18:29.842Z,22.5
2018-06-09T05:19:29.918Z,22.49
2018-06-09T05:20:29.860Z,22.5
2018-06-09T05:21:29.976Z,22.49
2018-06-09T05:22:29.873Z,22.49
2018-06-09T05:23:29.825Z,22.49
2018-06-09T05:24:29.779Z,22.5
2018-06-09T05:25:29.842Z,22.49
2018-06-09T05:26:29.905Z,22.5
2018-06-09T05:27:29.909Z,22.5
2018-06-09T05:28:29.762Z,22.48
2018-06-09T05:29:29.924Z,22.49
2018-06-09T05:30:29.755Z,22.49
2018-06-09T05:31:29.750Z,22.49
2018-06-09T05:32:29.758Z,22.5
2018-06-09T05:33:29.780Z,22.49
2018-06-09T05:34:29.804Z,22.49
2018-06-09T05:35:29.717Z,22.5
2018-06-09T05:36:29.956Z,22.5
2018-06-09T05:37:29.867Z,22.49
2018-06-09T05:38:29.931Z,22.49
2018-06-09T05:39:29.840Z,22.49
2018-06-09T05:40:29.922Z,22.49
2018-06-09T05:41:29.964Z,22.49
2018-06-09T05:42:29.880Z,22.49
2018-06-09T05:43:29.876Z,22.48
2018-06-09T05:44:29.798Z,22.49
2018-06-09T05:45:29.862Z,22.5
2018-06-09T05:46:29.716Z,22.48
2018-06-09T05:47:29.739Z,22.49
2018-06-09T05:48:29.857Z,22.49
2018-06-09T05:49:30.241Z,22.49
2018-06-09T05:50:29.911Z,22.49
2018-06-09T05:51:29.939Z,22.49
2018-06-09T05:52:29.947Z,22.49
2018-06-09T05:53:29.844Z,22.49
2018-06-09T05:54:29.845Z,22.49
2018-06-09T05:55:29.936Z,22.49
2018-06-09T05:56:30.031Z,22.49
2018-06-09T05:57:39.819Z,22.49
2018-06-09T05:58:29.954Z,22.48
2018-06-09T05:59:29.946Z,22.49
2018-06-09T06:00:29.905Z,22.49
2018-06-09T06:01:29.850Z,22.48
2018-06-09T06:02:29.731Z,22.48
2018-06-09T06:03:29.685Z,22.49
2018-06-09T06:04:29.847Z,22.48
2018-06-09T06:05:29.936Z,22.49
2018-06-09T06:06:29.919Z,22.49
2018-06-09T06:07:29.840Z,22.48
2018-06-09T06:08:29.929Z,22.49
2018-06-09T06:09:29.925Z,22.49
2018-06-09T06:10:29.890Z,22.49
2018-06-09T06:11:29.693Z,22.49
2018-06-09T06:12:29.911Z,22.48
2018-06-09T06:13:29.952Z,22.48
2018-06-09T06:14:30.039Z,22.49
2018-06-09T06:15:30.013Z,22.49
2018-06-09T06:16:29.833Z,22.48
2018-06-09T06:17:29.834Z,22.48
2018-06-09T06:18:29.945Z,22.49
2018-06-09T06:19:30.080Z,22.48
2018-06-09T06:20:29.782Z,22.49
2018-06-09T06:21:30.036Z,22.48
2018-06-09T06:22:29.837Z,22.48
2018-06-09T06:23:30.035Z,22.49
2018-06-09T06:24:29.854Z,22.49
2018-06-09T06:25:29.995Z,22.48
2018-06-09T06:26:29.904Z,22.49
2018-06-09T06:27:29.891Z,22.49
2018-06-09T06:28:29.946Z,22.49
2018-06-09T06:29:29.701Z,22.49
2018-06-09T06:30:29.733Z,22.49
2018-06-09T06:31:29.708Z,22.49
2018-06-09T06:32:29.735Z,22.49
2018-06-09T06:33:29.998Z,22.49
2018-06-09T06:34:29.756Z,22.49
2018-06-09T06:35:29.967Z,22.49
2018-06-09T06:36:29.745Z,22.49
2018-06-09T06:37:29.933Z,22.49
2018-06-09T06:38:29.796Z,22.49
2018-06-09T06:39:29.928Z,22.49
2018-06-09T06:40:29.817Z,22.48
2018-06-09T06:41:29.698Z,22.49
2018-06-09T06:42:29.697Z,22.49
2018-06-09T06:43:29.852Z,22.48
2018-06-09T06:44:29.741Z,22.49
2018-06-09T06:45:29.912Z,22.49
2018-06-09T06:46:29.787Z,22.49
2018-06-09T06:47:29.874Z,22.49
2018-06-09T06:48:29.886Z,22.49
2018-06-09T06:49:29.798Z,22.49
2018-06-09T06:50:29.858Z,22.48
2018-06-09T06:51:29.726Z,22.48
2018-06-09T06:52:29.812Z,22.48
2018-06-09T06:53:29.744Z,22.49
2018-06-09T06:54:29.825Z,22.49
2018-06-09T06:55:29.954Z,22.48
2018-06-09T06:56:29.861Z,22.49
2018-06-09T06:57:29.676Z,22.49
2018-06-09T06:58:29.943Z,22.48
2018-06-09T06:59:29.746Z,22.48
2018-06-09T07:00:29.770Z,22.49
2018-06-09T07:01:29.778Z,22.48
2018-06-09T07:02:29.686Z,22.47
2018-06-09T07:03:29.802Z,22.48
2018-06-09T07:04:29.785Z,22.48
2018-06-09T07:05:29.811Z,22.48
2018-06-09T07:06:30.179Z,22.49
2018-06-09T07:07:29.935Z,22.48
2018-06-09T07:08:30.008Z,22.48
2018-06-09T07:09:29.815Z,22.48
2018-06-09T07:10:29.843Z,22.48
2018-06-09T07:11:29.800Z,22.47
2018-06-09T07:12:29.739Z,22.49
2018-06-09T07:13:29.769Z,22.47
2018-06-09T07:14:29.817Z,22.48
2018-06-09T07:15:29.899Z,22.48
2018-06-09T07:16:29.831Z,22.48
2018-06-09T07:17:29.931Z,22.48
2018-06-09T07:18:29.707Z,22.48
2018-06-09T07:19:29.827Z,22.48
2018-06-09T07:20:29.975Z,22.48
2018-06-09T07:21:29.931Z,22.48
2018-06-09T07:22:29.835Z,22.47
2018-06-09T07:23:29.839Z,22.48
2018-06-09T07:24:29.743Z,22.48
2018-06-09T07:25:30.001Z,22.48
2018-06-09T07:26:29.800Z,22.48
2018-06-09T07:27:29.907Z,22.48
2018-06-09T07:28:29.894Z,22.47
2018-06-09T07:29:29.870Z,22.48
2018-06-09T07:30:29.681Z,22.47
2018-06-09T07:31:29.703Z,22.47
2018-06-09T07:32:29.790Z,22.47
2018-06-09T07:33:29.751Z,22.49
2018-06-09T07:34:29.765Z,22.47
2018-06-09T07:35:29.942Z,22.49
2018-06-09T07:36:29.973Z,22.48
2018-06-09T07:37:29.787Z,22.47
2018-06-09T07:38:30.146Z,22.48
2018-06-09T07:39:30.102Z,22.48
2018-06-09T07:40:29.859Z,22.48
2018-06-09T07:41:29.909Z,22.48
2018-06-09T07:42:29.682Z,22.48
2018-06-09T07:43:29.750Z,22.47
2018-06-09T07:44:30.042Z,22.47
2018-06-09T07:45:29.857Z,22.48
2018-06-09T07:46:29.801Z,22.47
2018-06-09T07:47:29.856Z,22.48
2018-06-09T07:48:29.781Z,22.48
2018-06-09T07:49:29.953Z,22.47
2018-06-09T07:50:29.708Z,22.47
2018-06-09T07:51:29.678Z,22.48
2018-06-09T07:52:29.793Z,22.47
2018-06-09T07:53:29.785Z,22.48
2018-06-09T07:54:29.821Z,22.48
2018-06-09T07:55:29.813Z,22.47
2018-06-09T07:56:29.915Z,22.47
2018-06-09T07:57:29.767Z,22.48
2018-06-09T07:58:29.841Z,22.48
2018-06-09T07:59:29.860Z,22.48
2018-06-09T08:00:29.673Z,22.48
2018-06-09T08:01:29.843Z,22.47
2018-06-09T08:02:29.815Z,22.48
2018-06-09T08:03:29.679Z,22.48
2018-06-09T08:04:29.862Z,22.47
2018-06-09T08:05:29.865Z,22.47
2018-06-09T08:06:29.716Z,22.47
2018-06-09T08:07:29.809Z,22.47
2018-06-09T08:08:29.787Z,22.47
2018-06-09T08:09:29.822Z,22.47
2018-06-09T08:10:29.943Z,22.46
2018-06-09T08:11:29.903Z,22.47
2018-06-09T08:12:29.813Z,22.45
2018-06-09T08:13:30.017Z,22.48
2018-06-09T08:14:30.068Z,22.5
2018-06-09T08:15:29.892Z,22.53
2018-06-09T08:16:29.778Z,22.53
2018-06-09T08:17:29.787Z,22.54
2018-06-09T08:18:29.832Z,22.6
2018-06-09T08:19:29.895Z,22.64
2018-06-09T08:20:29.683Z,22.64
2018-06-09T08:21:29.943Z,22.66
2018-06-09T08:22:29.826Z,22.66
2018-06-09T08:23:29.783Z,22.66
2018-06-09T08:24:30.128Z,22.69
2018-06-09T08:25:29.772Z,22.68
2018-06-09T08:26:29.857Z,22.68
2018-06-09T08:27:29.890Z,22.69
2018-06-09T08:28:29.827Z,22.7
2018-06-09T08:29:29.680Z,22.72
2018-06-09T08:30:29.874Z,22.7
2018-06-09T08:31:29.924Z,22.71
2018-06-09T08:32:29.917Z,22.72
2018-06-09T08:33:29.886Z,22.72
2018-06-09T08:34:30.033Z,22.73
2018-06-09T08:35:29.894Z,22.73
2018-06-09T08:36:29.762Z,22.72
2018-06-09T08:37:29.945Z,22.73
2018-06-09T08:38:30.482Z,22.74
2018-06-09T08:39:29.785Z,22.76
2018-06-09T08:40:29.719Z,22.76
2018-06-09T08:41:29.800Z,22.78
2018-06-09T08:42:29.740Z,22.79
2018-06-09T08:43:29.903Z,22.8
2018-06-09T08:44:29.777Z,22.8
2018-06-09T08:45:29.903Z,22.8
2018-06-09T08:46:29.809Z,22.81
2018-06-09T08:47:29.838Z,22.81
2018-06-09T08:48:29.714Z,22.82
2018-06-09T08:49:29.634Z,22.82
2018-06-09T08:50:29.729Z,22.84
2018-06-09T08:51:29.902Z,22.84
2018-06-09T08:52:29.833Z,22.83
2018-06-09T08:53:29.950Z,22.84
2018-06-09T08:54:29.705Z,22.84
2018-06-09T08:55:29.899Z,22.85
2018-06-09T08:56:29.704Z,22.86
2018-06-09T08:57:29.782Z,22.87
2018-06-09T08:58:29.726Z,22.86
2018-06-09T08:59:29.827Z,22.86
2018-06-09T09:00:29.920Z,22.87
2018-06-09T09:01:30.181Z,22.87
2018-06-09T09:02:29.699Z,22.87
2018-06-09T09:03:29.894Z,22.87
2018-06-09T09:04:29.937Z,22.87
2018-06-09T09:05:29.819Z,22.85
2018-06-09T09:06:29.728Z,22.87
2018-06-09T09:07:29.681Z,22.87
2018-06-09T09:08:29.732Z,22.88
2018-06-09T09:09:29.859Z,22.89
2018-06-09T09:10:29.735Z,22.88
2018-06-09T09:11:29.781Z,22.89
2018-06-09T09:12:29.826Z,22.9
2018-06-09T09:13:29.708Z,22.9
2018-06-09T09:14:29.651Z,22.9
2018-06-09T09:15:29.936Z,22.9
2018-06-09T09:16:29.849Z,22.92
2018-06-09T09:17:29.786Z,22.91
2018-06-09T09:18:29.753Z,22.92
2018-06-09T09:19:29.863Z,22.91
2018-06-09T09:20:29.945Z,22.92
2018-06-09T09:21:29.726Z,22.93
2018-06-09T09:22:29.812Z,22.92
2018-06-09T09:23:29.933Z,22.92
2018-06-09T09:24:29.845Z,22.92
2018-06-09T09:25:30.054Z,22.92
2018-06-09T09:26:29.691Z,22.94
2018-06-09T09:27:29.708Z,22.94
2018-06-09T09:28:29.763Z,22.94
2018-06-09T09:29:29.682Z,22.94
2018-06-09T09:30:29.835Z,22.95
2018-06-09T09:31:29.968Z,22.95
2018-06-09T09:32:29.755Z,22.95
2018-06-09T09:33:29.919Z,22.96
2018-06-09T09:34:29.861Z,22.95
2018-06-09T09:35:29.746Z,22.95
2018-06-09T09:36:29.893Z,22.96
2018-06-09T09:37:29.654Z,22.95
2018-06-09T09:38:29.856Z,22.97
2018-06-09T09:39:29.738Z,22.97
2018-06-09T09:40:30.032Z,22.97
2018-06-09T09:41:29.931Z,22.97
2018-06-09T09:42:29.707Z,22.97
2018-06-09T09:43:29.731Z,22.96
2018-06-09T09:44:29.843Z,22.97
2018-06-09T09:45:29.991Z,22.98
2018-06-09T09:46:29.670Z,22.98
2018-06-09T09:47:29.620Z,22.98
2018-06-09T09:48:29.857Z,22.99
2018-06-09T09:49:29.737Z,22.99
2018-06-09T09:50:29.950Z,22.99
2018-06-09T09:51:29.807Z,23
2018-06-09T09:52:29.784Z,22.99
2018-06-09T09:53:29.791Z,23
2018-06-09T09:54:29.922Z,23.01
2018-06-09T09:55:29.781Z,23.01
2018-06-09T09:56:29.652Z,23.01
2018-06-09T09:57:29.728Z,23.01
2018-06-09T09:58:29.956Z,23
2018-06-09T09:59:29.866Z,23.01
2018-06-09T10:00:29.912Z,23.01
2018-06-09T10:01:29.839Z,23
2018-06-09T10:02:29.674Z,23.02
2018-06-09T10:03:29.849Z,23.03
2018-06-09T10:04:29.798Z,23
2018-06-09T10:05:29.677Z,23
2018-06-09T10:06:30.122Z,23.02
2018-06-09T10:07:29.745Z,23.02
2018-06-09T10:08:29.768Z,23.02
2018-06-09T10:09:29.717Z,23.03
2018-06-09T10:10:29.858Z,23.03
2018-06-09T10:11:29.839Z,23.04
2018-06-09T10:12:29.734Z,23.04
2018-06-09T10:13:29.721Z,23.04
2018-06-09T10:14:29.750Z,23.04
2018-06-09T10:15:29.713Z,23.04
2018-06-09T10:16:29.668Z,23.03
2018-06-09T10:17:29.859Z,23.03
2018-06-09T10:18:29.659Z,23.04
2018-06-09T10:19:29.720Z,23.06
2018-06-09T10:20:29.625Z,23.06
2018-06-09T10:21:29.707Z,23.06
2018-06-09T10:22:29.744Z,23.06
2018-06-09T10:23:29.763Z,23.07
2018-06-09T10:24:29.762Z,23.07
2018-06-09T10:25:29.719Z,23.06
2018-06-09T10:26:29.757Z,23.08
2018-06-09T10:27:29.615Z,23.09
2018-06-09T10:28:29.666Z,23.1
2018-06-09T10:29:29.725Z,23.09
2018-06-09T10:30:29.713Z,23.09
2018-06-09T10:31:29.765Z,23.08
2018-06-09T10:32:29.710Z,23.08
2018-06-09T10:33:29.885Z,23.08
2018-06-09T10:34:29.994Z,23.07
2018-06-09T10:35:29.768Z,23.07
2018-06-09T10:36:29.901Z,23.07
2018-06-09T10:37:29.810Z,23.05
2018-06-09T10:38:29.580Z,23.05
2018-06-09T10:39:29.768Z,23.05
2018-06-09T10:40:29.996Z,23.05
2018-06-09T10:41:29.899Z,23.03
2018-06-09T10:42:29.835Z,23.04
2018-06-09T10:43:29.786Z,23.03
2018-06-09T10:44:29.851Z,23.04
2018-06-09T10:45:29.842Z,23.02
2018-06-09T10:46:29.804Z,23.01
2018-06-09T10:47:29.917Z,23.01
2018-06-09T10:48:29.615Z,23
2018-06-09T10:49:29.652Z,23
2018-06-09T10:50:29.686Z,22.99
2018-06-09T10:51:29.763Z,22.99
2018-06-09T10:52:29.915Z,22.98
2018-06-09T10:53:29.880Z,22.99
2018-06-09T10:54:29.659Z,22.98
2018-06-09T10:55:29.612Z,22.97
2018-06-09T10:56:29.644Z,22.98
2018-06-09T10:57:32.939Z,22.97
2018-06-09T10:58:29.826Z,22.96
2018-06-09T10:59:29.657Z,22.96
2018-06-09T11:00:29.688Z,22.97
2018-06-09T11:01:29.829Z,22.96
2018-06-09T11:02:29.906Z,22.96
2018-06-09T11:03:29.930Z,22.95
2018-06-09T11:04:29.915Z,22.94
2018-06-09T11:05:29.757Z,22.94
2018-06-09T11:06:29.885Z,22.93
2018-06-09T11:07:30.065Z,22.92
2018-06-09T11:08:29.761Z,22.91
2018-06-09T11:09:29.633Z,22.9
2018-06-09T11:10:29.940Z,22.89
2018-06-09T11:11:29.668Z,22.89
2018-06-09T11:12:29.806Z,22.89
2018-06-09T11:13:29.761Z,22.88
2018-06-09T11:14:29.655Z,22.88
2018-06-09T11:15:30.211Z,22.87
2018-06-09T11:16:29.840Z,22.86
2018-06-09T11:17:30.062Z,22.86
2018-06-09T11:18:29.763Z,22.87
2018-06-09T11:19:29.655Z,22.86
2018-06-09T11:20:29.818Z,22.86
2018-06-09T11:21:29.905Z,22.86
2018-06-09T11:22:29.675Z,22.85
2018-06-09T11:23:29.685Z,22.85
2018-06-09T11:24:29.947Z,22.85
2018-06-09T11:25:29.909Z,22.84
2018-06-09T11:26:29.795Z,22.84
2018-06-09T11:27:29.690Z,22.83
2018-06-09T11:28:29.680Z,22.83
2018-06-09T11:29:29.804Z,22.83
2018-06-09T11:30:29.750Z,22.83
2018-06-09T11:31:29.600Z,22.82
2018-06-09T11:32:29.702Z,22.82
2018-06-09T11:33:29.697Z,22.82
2018-06-09T11:34:29.737Z,22.81
2018-06-09T11:35:29.691Z,22.82
2018-06-09T11:36:29.634Z,22.81
2018-06-09T11:37:29.840Z,22.81
2018-06-09T11:38:29.756Z,22.81
2018-06-09T11:39:29.799Z,22.81
2018-06-09T11:40:29.682Z,22.8
2018-06-09T11:41:29.886Z,22.81
2018-06-09T11:42:29.623Z,22.8
2018-06-09T11:43:29.886Z,22.8
2018-06-09T11:44:29.792Z,22.8
2018-06-09T11:45:29.684Z,22.8
2018-06-09T11:46:29.810Z,22.79
2018-06-09T11:47:29.809Z,22.79
2018-06-09T11:48:29.754Z,22.79
2018-06-09T11:49:29.724Z,22.78
2018-06-09T11:50:29.785Z,22.78
2018-06-09T11:51:29.801Z,22.79
2018-06-09T11:52:29.719Z,22.79
2018-06-09T11:53:29.753Z,22.79
2018-06-09T11:54:29.887Z,22.78
2018-06-09T11:55:29.752Z,22.78
2018-06-09T11:56:29.824Z,22.78
2018-06-09T11:57:29.637Z,22.78
2018-06-09T11:58:29.861Z,22.78
2018-06-09T11:59:29.866Z,22.77
2018-06-09T12:00:29.809Z,22.77
2018-06-09T12:01:29.748Z,22.77
2018-06-09T12:02:29.633Z,22.78
2018-06-09T12:03:29.698Z,22.77
2018-06-09T12:04:29.933Z,22.76
2018-06-09T12:05:29.637Z,22.77
2018-06-09T12:06:29.800Z,22.77
2018-06-09T12:07:29.745Z,22.77
2018-06-09T12:08:29.729Z,22.76
2018-06-09T12:09:29.763Z,22.76
2018-06-09T12:10:29.964Z,22.76
2018-06-09T12:11:29.822Z,22.76
2018-06-09T12:12:29.701Z,22.76
2018-06-09T12:13:29.743Z,22.74
2018-06-09T12:14:29.696Z,22.75
2018-06-09T12:15:29.770Z,22.74
2018-06-09T12:16:29.825Z,22.74
2018-06-09T12:17:29.972Z,22.74
2018-06-09T12:18:29.658Z,22.74
2018-06-09T12:19:29.873Z,22.73
2018-06-09T12:20:29.789Z,22.74
2018-06-09T12:21:29.727Z,22.74
2018-06-09T12:22:39.724Z,22.73
2018-06-09T12:23:29.856Z,22.73
2018-06-09T12:24:29.825Z,22.73
2018-06-09T12:25:29.929Z,22.73
2018-06-09T12:26:30.016Z,22.73
2018-06-09T12:27:29.769Z,22.76
2018-06-09T12:28:29.799Z,22.75
2018-06-09T12:29:29.794Z,22.78
2018-06-09T12:30:29.912Z,22.79
2018-06-09T12:31:29.858Z,22.79
2018-06-09T12:32:29.796Z,22.8
2018-06-09T12:33:29.828Z,22.82
2018-06-09T12:34:29.763Z,22.81
2018-06-09T12:35:29.790Z,22.83
2018-06-09T12:36:29.689Z,22.84
2018-06-09T12:37:29.778Z,22.85
2018-06-09T12:38:29.928Z,22.86
2018-06-09T12:39:29.856Z,22.88
2018-06-09T12:40:29.805Z,22.87
2018-06-09T12:41:30.028Z,22.88
2018-06-09T12:41:53.236Z,23.03
2018-06-09T12:42:53.382Z,23.11
2018-06-09T12:43:53.378Z,23.17
2018-06-09T12:44:53.275Z,23.22
2018-06-09T12:45:53.145Z,23.26
2018-06-09T12:46:53.320Z,23.3
2018-06-09T12:47:53.263Z,23.33
2018-06-09T12:48:53.311Z,23.36
2018-06-09T12:49:53.274Z,23.37
2018-06-09T12:50:53.040Z,23.4
2018-06-09T12:51:53.247Z,23.41
2018-06-09T12:52:53.323Z,23.42
2018-06-09T12:53:53.247Z,23.44
2018-06-09T12:54:53.180Z,23.44
2018-06-09T12:55:53.128Z,23.45